createdAt,value
2023-03-28T00:03:46.838Z,39.41
2023-03-28T00:13:58.361Z,39.55
2023-03-28T00:24:04.450Z,39.78
2023-03-28T00:34:07.104Z,39.93
2023-03-28T00:44:42.183Z,39.89
2023-03-28T00:54:43.985Z,39.90
2023-03-28T01:04:52.034Z,39.97
2023-03-28T01:14:53.418Z,40.23
2023-03-28T01:25:31.749Z,39.90
2023-03-28T01:35:46.499Z,39.47
2023-03-28T01:45:59.262Z,39.00
2023-03-28T01:56:14.061Z,38.57
2023-03-28T02:06:15.548Z,38.43
2023-03-28T02:16:17.004Z,38.10
2023-03-28T02:26:19.225Z,37.94
2023-03-28T02:36:31.532Z,37.94
2023-03-28T02:47:03.254Z,37.95
2023-03-28T02:57:19.797Z,38.13
2023-03-28T03:07:21.663Z,38.25
2023-03-28T03:17:23.036Z,38.53
2023-03-28T03:27:24.451Z,38.75
2023-03-28T03:37:26.002Z,39.08
2023-03-28T03:47:27.612Z,39.27
2023-03-28T03:57:28.998Z,39.42
2023-03-28T04:07:31.018Z,39.18
2023-03-28T04:17:35.118Z,38.72
2023-03-28T04:27:36.907Z,38.29
2023-03-28T04:37:38.528Z,37.91
2023-03-28T04:47:40.976Z,37.60
2023-03-28T04:57:42.390Z,37.49
2023-03-28T05:07:43.958Z,37.35
2023-03-28T05:17:45.419Z,37.49
2023-03-28T05:27:46.980Z,37.48
2023-03-28T05:37:48.427Z,37.50
2023-03-28T05:47:51.641Z,37.55
2023-03-28T05:57:53.098Z,37.38
2023-03-28T06:07:54.723Z,37.18
2023-03-28T06:17:57.774Z,37.12
2023-03-28T06:27:59.290Z,36.74
2023-03-28T06:38:01.010Z,36.33
2023-03-28T06:48:02.643Z,35.51
2023-03-28T06:58:04.106Z,34.92
2023-03-28T07:08:06.821Z,34.48
2023-03-28T07:18:10.777Z,33.92
2023-03-28T07:28:12.264Z,33.53
2023-03-28T07:38:13.805Z,32.83
2023-03-28T07:48:15.188Z,32.25
2023-03-28T07:58:16.748Z,31.71
2023-03-28T08:08:20.415Z,31.62
2023-03-28T08:18:24.091Z,31.22
2023-03-28T08:28:26.228Z,30.99
2023-03-28T08:38:27.651Z,30.68
2023-03-28T08:48:34.678Z,30.39
2023-03-28T08:59:15.825Z,29.94
2023-03-28T09:09:38.207Z,29.67
2023-03-28T09:20:11.615Z,28.48
2023-03-28T09:30:23.256Z,29.76
2023-03-28T09:40:34.441Z,30.30
2023-03-28T09:50:36.165Z,29.78
2023-03-28T10:00:42.962Z,29.66
2023-03-28T10:10:44.357Z,29.73
2023-03-28T10:20:45.834Z,30.44
2023-03-28T10:30:54.836Z,30.72
2023-03-28T10:41:00.862Z,31.21
2023-03-28T10:51:08.321Z,31.73
2023-03-28T11:01:17.697Z,31.68
2023-03-28T11:11:37.552Z,31.41
2023-03-28T11:22:00.595Z,30.71
2023-03-28T11:32:08.302Z,31.37
2023-03-28T11:42:21.312Z,31.87
2023-03-28T11:52:28.343Z,31.83
2023-03-28T12:02:29.999Z,31.44
2023-03-28T12:12:41.591Z,31.72
2023-03-28T12:22:50.128Z,31.89
2023-03-28T12:33:03.779Z,32.18
2023-03-28T12:43:05.425Z,31.35
2023-03-28T12:53:07.691Z,32.23
2023-03-28T13:03:43.915Z,32.45
2023-03-28T13:14:02.172Z,32.48
2023-03-28T13:24:03.551Z,32.68
2023-03-28T13:34:05.332Z,32.68
2023-03-28T13:44:10.892Z,32.87
2023-03-28T13:54:12.300Z,33.01
2023-03-28T14:04:23.906Z,33.20
2023-03-28T14:14:27.612Z,32.89
2023-03-28T14:24:29.004Z,33.28
2023-03-28T14:34:30.379Z,33.25
2023-03-28T14:44:35.812Z,33.09
2023-03-28T14:54:39.246Z,33.36
2023-03-28T15:04:41.059Z,33.36
2023-03-28T15:14:43.414Z,33.54
2023-03-28T15:24:45.021Z,33.73
2023-03-28T15:34:48.319Z,33.25
2023-03-28T15:44:58.848Z,33.29
2023-03-28T15:55:00.947Z,33.70
2023-03-28T16:05:14.556Z,34.15
2023-03-28T16:15:16.048Z,34.05
2023-03-28T16:25:17.480Z,34.32
2023-03-28T16:35:19.030Z,34.21
2023-03-28T16:45:20.671Z,34.39
2023-03-28T16:55:22.088Z,34.57
2023-03-28T17:05:23.492Z,34.65
2023-03-28T17:15:24.889Z,34.72
2023-03-28T17:25:26.765Z,34.80
2023-03-28T17:35:28.175Z,34.82
2023-03-28T17:45:30.035Z,35.04
2023-03-28T17:55:31.440Z,34.84
2023-03-28T18:05:32.859Z,35.09
2023-03-28T18:15:36.132Z,34.99
2023-03-28T18:25:38.306Z,35.47
2023-03-28T18:35:39.823Z,34.96
2023-03-28T18:45:41.669Z,34.65
2023-03-28T18:55:43.192Z,35.35
2023-03-28T19:05:44.595Z,35.65
2023-03-28T19:15:46.156Z,35.68
2023-03-28T19:25:48.506Z,35.94
2023-03-28T19:35:50.076Z,36.02
2023-03-28T19:45:51.612Z,36.47
2023-03-28T19:55:54.096Z,36.62
2023-03-28T20:05:55.510Z,36.79
2023-03-28T20:15:56.938Z,37.00
2023-03-28T20:25:59.660Z,37.12
2023-03-28T20:36:01.531Z,37.39
2023-03-28T20:46:03.074Z,37.52
2023-03-28T20:56:05.010Z,37.73
2023-03-28T21:06:07.802Z,37.71
2023-03-28T21:16:09.581Z,37.96
2023-03-28T21:26:13.441Z,38.03
2023-03-28T21:36:18.281Z,38.31
2023-03-28T21:46:20.750Z,38.36
2023-03-28T21:56:22.968Z,38.48
2023-03-28T22:06:24.366Z,38.42
2023-03-28T22:16:25.879Z,38.09
2023-03-28T22:26:28.147Z,37.60
2023-03-28T22:36:29.626Z,37.39
2023-03-28T22:46:31.163Z,37.36
2023-03-28T22:56:33.766Z,37.20
2023-03-28T23:06:36.105Z,37.07
2023-03-28T23:16:38.348Z,36.96
2023-03-28T23:26:39.814Z,37.07
2023-03-28T23:36:41.232Z,37.18
2023-03-28T23:46:42.634Z,37.39
2023-03-28T23:56:45.016Z,37.69
